sensor_id;sensor_type;location;lat;lon;timestamp;pressure;altitude;pressure_sealevel;temperature;humidity
37634;BME280;32048;49.902;22.508;2023-04-04T00:00:33;99200.78;;;-1.78;100.00
37634;BME280;32048;49.902;22.508;2023-04-04T00:03:13;99194.72;;;-1.80;100.00
37634;BME280;32048;49.902;22.508;2023-04-04T00:05:41;99196.44;;;-1.84;100.00
37634;BME280;32048;49.902;22.508;2023-04-04T00:08:08;99191.25;;;-1.87;100.00
37634;BME280;32048;49.902;22.508;2023-04-04T00:10:35;99192.97;;;-1.88;100.00
37634;BME280;32048;49.902;22.508;2023-04-04T00:13:02;99192.97;;;-1.88;100.00
37634;BME280;32048;49.902;22.508;2023-04-04T00:15:31;99194.69;;;-1.93;100.00
37634;BME280;32048;49.902;22.508;2023-04-04T00:18:01;99192.09;;;-1.90;100.00
37634;BME280;32048;49.902;22.508;2023-04-04T00:20:29;99192.13;;;-1.88;100.00
37634;BME280;32048;49.902;22.508;2023-04-04T00:22:56;99192.97;;;-1.84;100.00
37634;BME280;32048;49.902;22.508;2023-04-04T00:25:24;99195.59;;;-1.80;100.00
37634;BME280;32048;49.902;22.508;2023-04-04T00:27:51;99201.66;;;-1.76;100.00
37634;BME280;32048;49.902;22.508;2023-04-04T00:30:18;99196.50;;;-1.75;100.00
37634;BME280;32048;49.902;22.508;2023-04-04T00:32:45;99199.97;;;-1.67;100.00
37634;BME280;32048;49.902;22.508;2023-04-04T00:35:13;99201.72;;;-1.62;100.00
37634;BME280;32048;49.902;22.508;2023-04-04T00:37:40;99195.69;;;-1.60;100.00
37634;BME280;32048;49.902;22.508;2023-04-04T00:40:07;99195.72;;;-1.57;100.00
37634;BME280;32048;49.902;22.508;2023-04-04T00:42:34;99186.19;;;-1.55;100.00
37634;BME280;32048;49.902;22.508;2023-04-04T00:45:05;99191.41;;;-1.52;100.00
37634;BME280;32048;49.902;22.508;2023-04-04T00:47:33;99194.84;;;-1.51;100.00
37634;BME280;32048;49.902;22.508;2023-04-04T00:50:01;99195.72;;;-1.49;100.00
37634;BME280;32048;49.902;22.508;2023-04-04T00:52:28;99191.41;;;-1.47;100.00
37634;BME280;32048;49.902;22.508;2023-04-04T00:54:56;99185.38;;;-1.44;100.00
37634;BME280;32048;49.902;22.508;2023-04-04T00:57:23;99190.56;;;-1.43;100.00
37634;BME280;32048;49.902;22.508;2023-04-04T00:59:50;99189.69;;;-1.42;100.00
37634;BME280;32048;49.902;22.508;2023-04-04T01:02:17;99190.56;;;-1.40;100.00
37634;BME280;32048;49.902;22.508;2023-04-04T01:04:45;99188.84;;;-1.41;100.00
37634;BME280;32048;49.902;22.508;2023-04-04T01:07:12;99190.56;;;-1.40;100.00
37634;BME280;32048;49.902;22.508;2023-04-04T01:09:40;99200.09;;;-1.39;100.00
37634;BME280;32048;49.902;22.508;2023-04-04T01:12:07;99190.56;;;-1.37;100.00
37634;BME280;32048;49.902;22.508;2023-04-04T01:14:35;99186.25;;;-1.38;100.00
37634;BME280;32048;49.902;22.508;2023-04-04T01:17:02;99190.56;;;-1.37;100.00
37634;BME280;32048;49.902;22.508;2023-04-04T01:19:33;99186.28;;;-1.36;100.00
37634;BME280;32048;49.902;22.508;2023-04-04T01:22:03;99184.53;;;-1.36;100.00
37634;BME280;32048;49.902;22.508;2023-04-04T01:24:32;99184.53;;;-1.36;100.00
37634;BME280;32048;49.902;22.508;2023-04-04T01:27:00;99189.75;;;-1.34;100.00
37634;BME280;32048;49.902;22.508;2023-04-04T01:29:28;99188.88;;;-1.32;100.00
37634;BME280;32048;49.902;22.508;2023-04-04T01:32:19;99184.56;;;-1.31;100.00
37634;BME280;32048;49.902;22.508;2023-04-04T01:37:47;99189.75;;;-1.30;100.00
37634;BME280;32048;49.902;22.508;2023-04-04T01:40:24;99188.84;;;-1.30;100.00
37634;BME280;32048;49.902;22.508;2023-04-04T01:42:53;99196.66;;;-1.27;100.00
37634;BME280;32048;49.902;22.508;2023-04-04T01:45:21;99191.44;;;-1.30;100.00
37634;BME280;32048;49.902;22.508;2023-04-04T01:47:48;99189.72;;;-1.28;100.00
37634;BME280;32048;49.902;22.508;2023-04-04T01:50:15;99190.59;;;-1.26;100.00
37634;BME280;32048;49.902;22.508;2023-04-04T01:52:42;99187.16;;;-1.25;100.00
37634;BME280;32048;49.902;22.508;2023-04-04T01:55:10;99190.59;;;-1.26;100.00
37634;BME280;32048;49.902;22.508;2023-04-04T01:57:37;99188.03;;;-1.24;100.00
37634;BME280;32048;49.902;22.508;2023-04-04T02:00:04;99190.63;;;-1.24;100.00
37634;BME280;32048;49.902;22.508;2023-04-04T02:02:32;99189.75;;;-1.23;100.00
37634;BME280;32048;49.902;22.508;2023-04-04T02:04:59;99189.75;;;-1.22;100.00
37634;BME280;32048;49.902;22.508;2023-04-04T02:07:26;99195.81;;;-1.20;100.00
37634;BME280;32048;49.902;22.508;2023-04-04T02:09:53;99194.09;;;-1.21;100.00
37634;BME280;32048;49.902;22.508;2023-04-04T02:12:20;99187.16;;;-1.22;100.00
37634;BME280;32048;49.902;22.508;2023-04-04T02:14:48;99189.75;;;-1.22;100.00
37634;BME280;32048;49.902;22.508;2023-04-04T02:17:15;99188.91;;;-1.22;100.00
37634;BME280;32048;49.902;22.508;2023-04-04T02:19:42;99193.19;;;-1.21;100.00
37634;BME280;32048;49.902;22.508;2023-04-04T02:22:09;99193.19;;;-1.21;100.00
37634;BME280;32048;49.902;22.508;2023-04-04T02:24:36;99192.34;;;-1.22;100.00
37634;BME280;32048;49.902;22.508;2023-04-04T02:27:03;99185.44;;;-1.21;100.00
37634;BME280;32048;49.902;22.508;2023-04-04T02:29:31;99184.56;;;-1.22;100.00
37634;BME280;32048;49.902;22.508;2023-04-04T02:31:57;99183.69;;;-1.24;100.00
37634;BME280;32048;49.902;22.508;2023-04-04T02:34:25;99181.13;;;-1.21;100.00
37634;BME280;32048;49.902;22.508;2023-04-04T02:36:52;99178.53;;;-1.21;100.00
37634;BME280;32048;49.902;22.508;2023-04-04T02:39:19;99177.66;;;-1.21;100.00
37634;BME280;32048;49.902;22.508;2023-04-04T02:41:46;99177.66;;;-1.21;100.00
37634;BME280;32048;49.902;22.508;2023-04-04T02:44:13;99175.97;;;-1.21;100.00
37634;BME280;32048;49.902;22.508;2023-04-04T02:46:40;99175.97;;;-1.21;100.00
37634;BME280;32048;49.902;22.508;2023-04-04T02:49:08;99169.03;;;-1.22;100.00
37634;BME280;32048;49.902;22.508;2023-04-04T02:51:35;99169.03;;;-1.22;100.00
37634;BME280;32048;49.902;22.508;2023-04-04T02:54:02;99159.53;;;-1.24;100.00
37634;BME280;32048;49.902;22.508;2023-04-04T02:56:30;99152.59;;;-1.29;100.00
37634;BME280;32048;49.902;22.508;2023-04-04T02:58:58;99149.13;;;-1.31;100.00
37634;BME280;32048;49.902;22.508;2023-04-04T03:01:25;99141.38;;;-1.38;100.00
37634;BME280;32048;49.902;22.508;2023-04-04T03:03:52;99151.69;;;-1.46;100.00
37634;BME280;32048;49.902;22.508;2023-04-04T03:06:19;99152.56;;;-1.52;100.00
37634;BME280;32048;49.902;22.508;2023-04-04T03:08:46;99144.75;;;-1.61;100.00
37634;BME280;32048;49.902;22.508;2023-04-04T03:11:17;99136.97;;;-1.70;100.00
37634;BME280;32048;49.902;22.508;2023-04-04T03:13:46;99137.78;;;-1.77;100.00
37634;BME280;32048;49.902;22.508;2023-04-04T03:16:13;99136.06;;;-1.86;100.00
37634;BME280;32048;49.902;22.508;2023-04-04T03:18:42;99138.59;;;-1.97;100.00
37634;BME280;32048;49.902;22.508;2023-04-04T03:21:10;99141.13;;;-2.04;100.00
37634;BME280;32048;49.902;22.508;2023-04-04T03:23:37;99136.78;;;-2.12;100.00
37634;BME280;32048;49.902;22.508;2023-04-04T03:26:04;99138.47;;;-2.18;100.00
37634;BME280;32048;49.902;22.508;2023-04-04T03:28:31;99130.69;;;-2.26;100.00
37634;BME280;32048;49.902;22.508;2023-04-04T03:31:04;99141.84;;;-2.33;100.00
37634;BME280;32048;49.902;22.508;2023-04-04T03:33:35;99141.81;;;-2.39;100.00
37634;BME280;32048;49.902;22.508;2023-04-04T03:36:13;99144.34;;;-2.45;100.00
37634;BME280;32048;49.902;22.508;2023-04-04T03:38:40;99146.03;;;-2.51;100.00
37634;BME280;32048;49.902;22.508;2023-04-04T03:41:07;99138.25;;;-2.55;100.00
37634;BME280;32048;49.902;22.508;2023-04-04T03:43:35;99142.50;;;-2.60;100.00
37634;BME280;32048;49.902;22.508;2023-04-04T03:46:03;99144.22;;;-2.65;100.00
37634;BME280;32048;49.902;22.508;2023-04-04T03:48:30;99144.19;;;-2.70;100.00
37634;BME280;32048;49.902;22.508;2023-04-04T03:50:58;99140.69;;;-2.75;100.00
37634;BME280;32048;49.902;22.508;2023-04-04T03:53:25;99137.22;;;-2.80;100.00
37634;BME280;32048;49.902;22.508;2023-04-04T03:55:54;99144.09;;;-2.82;100.00
37634;BME280;32048;49.902;22.508;2023-04-04T03:58:22;99140.59;;;-2.86;100.00
37634;BME280;32048;49.902;22.508;2023-04-04T04:00:49;99137.16;;;-2.88;100.00
37634;BME280;32048;49.902;22.508;2023-04-04T04:03:17;99139.72;;;-2.89;100.00
37634;BME280;32048;49.902;22.508;2023-04-04T04:05:44;99146.59;;;-2.90;100.00
37634;BME280;32048;49.902;22.508;2023-04-04T04:08:11;99148.34;;;-2.89;100.00
37634;BME280;32048;49.902;22.508;2023-04-04T04:10:38;99146.59;;;-2.90;100.00
37634;BME280;32048;49.902;22.508;2023-04-04T04:13:06;99152.66;;;-2.85;100.00
37634;BME280;32048;49.902;22.508;2023-04-04T04:15:34;99149.31;;;-2.78;100.00
37634;BME280;32048;49.902;22.508;2023-04-04T04:18:01;99150.25;;;-2.65;100.00
37634;BME280;32048;49.902;22.508;2023-04-04T04:20:28;99151.16;;;-2.57;100.00
37634;BME280;32048;49.902;22.508;2023-04-04T04:22:55;99145.19;;;-2.51;100.00
37634;BME280;32048;49.902;22.508;2023-04-04T04:25:22;99156.38;;;-2.49;100.00
37634;BME280;32048;49.902;22.508;2023-04-04T04:27:49;99152.94;;;-2.49;100.00
37634;BME280;32048;49.902;22.508;2023-04-04T04:30:16;99157.28;;;-2.48;100.00
37634;BME280;32048;49.902;22.508;2023-04-04T04:32:43;99161.56;;;-2.47;100.00
37634;BME280;32048;49.902;22.508;2023-04-04T04:35:11;99163.31;;;-2.46;100.00
37634;BME280;32048;49.902;22.508;2023-04-04T04:37:38;99165.03;;;-2.42;100.00
37634;BME280;32048;49.902;22.508;2023-04-04T04:40:05;99176.34;;;-2.33;100.00
37634;BME280;32048;49.902;22.508;2023-04-04T04:42:33;99185.88;;;-2.24;100.00
37634;BME280;32048;49.902;22.508;2023-04-04T04:45:00;99185.94;;;-2.15;100.00
37634;BME280;32048;49.902;22.508;2023-04-04T04:47:29;99187.78;;;-1.92;100.00
37634;BME280;32048;49.902;22.508;2023-04-04T04:49:57;99189.72;;;-1.43;100.00
37634;BME280;32048;49.902;22.508;2023-04-04T04:52:24;99195.00;;;-0.88;100.00
37634;BME280;32048;49.902;22.508;2023-04-04T04:54:51;99197.63;;;-0.57;100.00
37634;BME280;32048;49.902;22.508;2023-04-04T04:57:21;99201.91;;;-0.41;100.00
37634;BME280;32048;49.902;22.508;2023-04-04T04:59:48;99212.28;;;-0.32;100.00
37634;BME280;32048;49.902;22.508;2023-04-04T05:02:15;99211.38;;;0.09;100.00
37634;BME280;32048;49.902;22.508;2023-04-04T05:04:42;99208.53;;;0.72;100.00
37634;BME280;32048;49.902;22.508;2023-04-04T05:07:11;99203.72;;;1.48;100.00
37634;BME280;32048;49.902;22.508;2023-04-04T05:09:38;99198.59;;;2.27;100.00
37634;BME280;32048;49.902;22.508;2023-04-04T05:12:05;99199.22;;;3.12;100.00
37634;BME280;32048;49.902;22.508;2023-04-04T05:14:33;99194.41;;;3.93;100.00
37634;BME280;32048;49.902;22.508;2023-04-04T05:17:00;99199.06;;;4.68;94.60
37634;BME280;32048;49.902;22.508;2023-04-04T05:19:27;99197.50;;;5.38;88.54
37634;BME280;32048;49.902;22.508;2023-04-04T05:21:55;99197.75;;;5.99;80.00
37634;BME280;32048;49.902;22.508;2023-04-04T05:24:21;99195.34;;;6.56;75.66
37634;BME280;32048;49.902;22.508;2023-04-04T05:26:49;99199.00;;;7.10;72.50
37634;BME280;32048;49.902;22.508;2023-04-04T05:29:16;99194.78;;;7.60;63.86
37634;BME280;32048;49.902;22.508;2023-04-04T05:31:43;99195.50;;;7.90;61.35
37634;BME280;32048;49.902;22.508;2023-04-04T05:34:10;99202.53;;;8.15;57.11
37634;BME280;32048;49.902;22.508;2023-04-04T05:36:37;99196.63;;;8.33;56.77
37634;BME280;32048;49.902;22.508;2023-04-04T05:39:04;99206.00;;;8.42;53.75
37634;BME280;32048;49.902;22.508;2023-04-04T05:41:32;99203.19;;;8.47;55.11
37634;BME280;32048;49.902;22.508;2023-04-04T05:43:59;99204.81;;;8.51;52.95
37634;BME280;32048;49.902;22.508;2023-04-04T05:46:26;99197.44;;;8.36;50.83
37634;BME280;32048;49.902;22.508;2023-04-04T05:48:53;99204.81;;;8.26;51.72
37634;BME280;32048;49.902;22.508;2023-04-04T05:51:20;99210.72;;;8.07;51.23
37634;BME280;32048;49.902;22.508;2023-04-04T05:53:47;99207.69;;;7.93;51.41
37634;BME280;32048;49.902;22.508;2023-04-04T05:56:14;99203.34;;;7.92;51.99
37634;BME280;32048;49.902;22.508;2023-04-04T05:58:42;99213.69;;;7.72;51.91
37634;BME280;32048;49.902;22.508;2023-04-04T06:01:11;99214.75;;;7.64;52.56
37634;BME280;32048;49.902;22.508;2023-04-04T06:03:38;99214.06;;;7.59;52.35
37634;BME280;32048;49.902;22.508;2023-04-04T06:06:06;99213.94;;;7.36;50.33
37634;BME280;32048;49.902;22.508;2023-04-04T06:08:33;99226.34;;;7.02;51.47
37634;BME280;32048;49.902;22.508;2023-04-04T06:11:18;99224.97;;;6.59;53.42
37634;BME280;32048;49.902;22.508;2023-04-04T06:13:45;99226.28;;;6.43;53.88
37634;BME280;32048;49.902;22.508;2023-04-04T06:16:12;99217.03;;;6.30;53.92
37634;BME280;32048;49.902;22.508;2023-04-04T06:18:40;99227.66;;;6.25;55.36
37634;BME280;32048;49.902;22.508;2023-04-04T06:21:07;99226.47;;;6.37;56.13
37634;BME280;32048;49.902;22.508;2023-04-04T06:23:34;99224.78;;;6.34;53.82
37634;BME280;32048;49.902;22.508;2023-04-04T06:26:04;99224.47;;;6.14;55.75
37634;BME280;32048;49.902;22.508;2023-04-04T06:28:31;99221.72;;;6.18;55.80
37634;BME280;32048;49.902;22.508;2023-04-04T06:30:58;99217.66;;;6.39;57.48
37634;BME280;32048;49.902;22.508;2023-04-04T06:33:25;99219.72;;;6.59;54.76
37634;BME280;32048;49.902;22.508;2023-04-04T06:35:52;99218.13;;;6.54;53.22
37634;BME280;32048;49.902;22.508;2023-04-04T06:38:19;99218.63;;;6.37;55.66
37634;BME280;32048;49.902;22.508;2023-04-04T06:40:47;99214.97;;;6.41;55.90
37634;BME280;32048;49.902;22.508;2023-04-04T06:43:14;99215.63;;;6.80;55.20
37634;BME280;32048;49.902;22.508;2023-04-04T06:45:41;99216.13;;;7.21;54.09
37634;BME280;32048;49.902;22.508;2023-04-04T06:48:08;99214.53;;;7.72;54.11
37634;BME280;32048;49.902;22.508;2023-04-04T06:50:35;99217.56;;;8.11;50.44
37634;BME280;32048;49.902;22.508;2023-04-04T06:53:03;99216.78;;;8.35;51.09
37634;BME280;32048;49.902;22.508;2023-04-04T06:55:33;99210.41;;;8.65;49.98
37634;BME280;32048;49.902;22.508;2023-04-04T06:58:00;99209.69;;;9.09;49.50
37634;BME280;32048;49.902;22.508;2023-04-04T07:00:27;99210.19;;;9.41;46.63
37634;BME280;32048;49.902;22.508;2023-04-04T07:02:58;99196.94;;;9.42;45.95
37634;BME280;32048;49.902;22.508;2023-04-04T07:05:26;99198.34;;;9.29;45.60
37634;BME280;32048;49.902;22.508;2023-04-04T07:07:54;99196.00;;;9.21;45.45
37634;BME280;32048;49.902;22.508;2023-04-04T07:10:23;99190.44;;;9.07;44.79
37634;BME280;32048;49.902;22.508;2023-04-04T07:12:50;99198.34;;;8.83;45.55
37634;BME280;32048;49.902;22.508;2023-04-04T07:15:17;99198.34;;;8.60;46.19
37634;BME280;32048;49.902;22.508;2023-04-04T07:17:44;99202.97;;;8.53;46.52
37634;BME280;32048;49.902;22.508;2023-04-04T07:20:11;99199.31;;;8.81;47.90
37634;BME280;32048;49.902;22.508;2023-04-04T07:22:39;99201.25;;;9.45;44.62
37634;BME280;32048;49.902;22.508;2023-04-04T07:25:07;99201.91;;;10.13;42.54
37634;BME280;32048;49.902;22.508;2023-04-04T07:27:35;99203.75;;;10.72;42.84
37634;BME280;32048;49.902;22.508;2023-04-04T07:30:03;99193.50;;;11.40;41.52
37634;BME280;32048;49.902;22.508;2023-04-04T07:32:30;99190.09;;;12.10;37.75
37634;BME280;32048;49.902;22.508;2023-04-04T07:34:58;99195.66;;;12.56;39.17
37634;BME280;32048;49.902;22.508;2023-04-04T07:37:25;99184.94;;;13.06;36.87
37634;BME280;32048;49.902;22.508;2023-04-04T07:39:55;99190.78;;;13.45;35.35
37634;BME280;32048;49.902;22.508;2023-04-04T07:42:22;99191.72;;;13.60;35.14
37634;BME280;32048;49.902;22.508;2023-04-04T07:44:50;99188.56;;;13.53;32.21
37634;BME280;32048;49.902;22.508;2023-04-04T07:47:17;99183.50;;;13.48;34.66
37634;BME280;32048;49.902;22.508;2023-04-04T07:49:44;99169.19;;;13.67;33.19
37634;BME280;32048;49.902;22.508;2023-04-04T07:52:12;99174.72;;;13.78;31.64
37634;BME280;32048;49.902;22.508;2023-04-04T07:54:39;99167.81;;;14.06;32.37
37634;BME280;32048;49.902;22.508;2023-04-04T07:57:06;99160.16;;;14.44;33.49
37634;BME280;32048;49.902;22.508;2023-04-04T07:59:36;99155.59;;;14.75;30.89
37634;BME280;32048;49.902;22.508;2023-04-04T08:02:03;99151.84;;;14.65;29.73
37634;BME280;32048;49.902;22.508;2023-04-04T08:04:30;99153.94;;;14.60;30.61
37634;BME280;32048;49.902;22.508;2023-04-04T08:06:57;99158.84;;;14.80;31.13
37634;BME280;32048;49.902;22.508;2023-04-04T08:09:25;99160.28;;;15.27;30.81
37634;BME280;32048;49.902;22.508;2023-04-04T08:11:54;99154.34;;;15.09;28.50
37634;BME280;32048;49.902;22.508;2023-04-04T08:14:21;99140.50;;;14.90;28.93
37634;BME280;32048;49.902;22.508;2023-04-04T08:16:48;99149.34;;;14.76;29.00
37634;BME280;32048;49.902;22.508;2023-04-04T08:19:15;99148.63;;;14.60;29.12
37634;BME280;32048;49.902;22.508;2023-04-04T08:21:43;99141.72;;;14.27;28.41
37634;BME280;32048;49.902;22.508;2023-04-04T08:24:11;99143.22;;;14.17;28.36
37634;BME280;32048;49.902;22.508;2023-04-04T08:26:38;99138.41;;;14.23;30.38
37634;BME280;32048;49.902;22.508;2023-04-04T08:29:05;99138.50;;;14.36;28.99
37634;BME280;32048;49.902;22.508;2023-04-04T08:31:33;99144.03;;;14.76;29.61
37634;BME280;32048;49.902;22.508;2023-04-04T08:34:00;99148.34;;;15.47;28.11
37634;BME280;32048;49.902;22.508;2023-04-04T08:36:28;99150.28;;;15.85;25.49
37634;BME280;32048;49.902;22.508;2023-04-04T08:38:56;99137.78;;;15.18;26.38
37634;BME280;32048;49.902;22.508;2023-04-04T08:41:23;99134.22;;;14.48;27.33
37634;BME280;32048;49.902;22.508;2023-04-04T08:43:52;99143.47;;;12.89;27.66
37634;BME280;32048;49.902;22.508;2023-04-04T08:46:23;99141.69;;;11.19;29.87
37634;BME280;32048;49.902;22.508;2023-04-04T08:48:51;99145.59;;;9.93;31.68
37634;BME280;32048;49.902;22.508;2023-04-04T08:51:21;99147.44;;;9.06;32.67
37634;BME280;32048;49.902;22.508;2023-04-04T08:53:52;99148.59;;;8.28;34.48
37634;BME280;32048;49.902;22.508;2023-04-04T08:56:19;99143.72;;;7.67;35.04
37634;BME280;32048;49.902;22.508;2023-04-04T08:58:47;99147.84;;;7.21;36.17
37634;BME280;32048;49.902;22.508;2023-04-04T09:01:14;99147.13;;;6.88;37.18
37634;BME280;32048;49.902;22.508;2023-04-04T09:03:43;99137.69;;;6.82;38.45
37634;BME280;32048;49.902;22.508;2023-04-04T09:06:11;99150.59;;;7.45;36.85
37634;BME280;32048;49.902;22.508;2023-04-04T09:08:40;99138.66;;;8.11;36.44
37634;BME280;32048;49.902;22.508;2023-04-04T09:11:07;99140.38;;;9.29;34.08
37634;BME280;32048;49.902;22.508;2023-04-04T09:13:35;99147.75;;;9.63;32.88
37634;BME280;32048;49.902;22.508;2023-04-04T09:16:04;99144.16;;;9.44;34.21
37634;BME280;32048;49.902;22.508;2023-04-04T09:18:32;99143.09;;;10.31;32.99
37634;BME280;32048;49.902;22.508;2023-04-04T09:20:58;99148.00;;;10.78;32.01
37634;BME280;32048;49.902;22.508;2023-04-04T09:23:34;99136.81;;;11.10;31.37
37634;BME280;32048;49.902;22.508;2023-04-04T09:26:01;99151.91;;;10.70;31.52
37634;BME280;32048;49.902;22.508;2023-04-04T09:28:30;99140.38;;;9.92;33.11
37634;BME280;32048;49.902;22.508;2023-04-04T09:31:02;99140.16;;;9.13;35.11
37634;BME280;32048;49.902;22.508;2023-04-04T09:33:31;99150.44;;;8.73;35.88
37634;BME280;32048;49.902;22.508;2023-04-04T09:36:07;99154.28;;;8.65;37.00
37634;BME280;32048;49.902;22.508;2023-04-04T09:38:40;99163.84;;;8.44;37.09
37634;BME280;32048;49.902;22.508;2023-04-04T09:41:14;99162.41;;;8.10;37.03
37634;BME280;32048;49.902;22.508;2023-04-04T09:43:43;99152.13;;;7.77;36.67
37634;BME280;32048;49.902;22.508;2023-04-04T09:46:11;99147.25;;;7.40;36.67
37634;BME280;32048;49.902;22.508;2023-04-04T09:48:38;99152.09;;;7.52;35.57
37634;BME280;32048;49.902;22.508;2023-04-04T09:51:06;99147.38;;;7.62;36.00
37634;BME280;32048;49.902;22.508;2023-04-04T09:53:34;99150.47;;;7.48;36.21
37634;BME280;32048;49.902;22.508;2023-04-04T09:56:05;99144.09;;;7.28;37.37
37634;BME280;32048;49.902;22.508;2023-04-04T09:58:33;99147.31;;;7.65;38.12
37634;BME280;32048;49.902;22.508;2023-04-04T10:01:11;99141.03;;;7.94;37.29
37634;BME280;32048;49.902;22.508;2023-04-04T10:03:38;99149.00;;;7.66;37.03
37634;BME280;32048;49.902;22.508;2023-04-04T10:06:06;99153.09;;;7.21;37.04
37634;BME280;32048;49.902;22.508;2023-04-04T10:08:38;99156.28;;;6.75;38.91
37634;BME280;32048;49.902;22.508;2023-04-04T10:11:06;99154.03;;;6.33;40.29
37634;BME280;32048;49.902;22.508;2023-04-04T10:13:38;99154.78;;;6.05;41.51
37634;BME280;32048;49.902;22.508;2023-04-04T10:16:07;99159.31;;;5.98;42.52
37634;BME280;32048;49.902;22.508;2023-04-04T10:18:35;99148.00;;;5.96;43.00
37634;BME280;32048;49.902;22.508;2023-04-04T10:21:04;99139.34;;;5.94;42.47
37634;BME280;32048;49.902;22.508;2023-04-04T10:23:44;99144.03;;;5.81;44.06
37634;BME280;32048;49.902;22.508;2023-04-04T10:26:12;99145.03;;;5.76;43.91
37634;BME280;32048;49.902;22.508;2023-04-04T10:28:40;99135.63;;;5.69;44.12
37634;BME280;32048;49.902;22.508;2023-04-04T10:34:09;99144.00;;;5.83;42.66
37634;BME280;32048;49.902;22.508;2023-04-04T10:36:49;99147.41;;;5.85;41.16
37634;BME280;32048;49.902;22.508;2023-04-04T10:39:23;99138.78;;;5.81;40.20
37634;BME280;32048;49.902;22.508;2023-04-04T10:41:52;99144.63;;;5.91;41.94
37634;BME280;32048;49.902;22.508;2023-04-04T10:44:27;99142.31;;;6.13;40.69
37634;BME280;32048;49.902;22.508;2023-04-04T10:46:56;99145.97;;;6.39;41.42
37634;BME280;32048;49.902;22.508;2023-04-04T10:49:26;99147.50;;;6.76;41.15
37634;BME280;32048;49.902;22.508;2023-04-04T10:51:54;99145.88;;;7.28;39.51
37634;BME280;32048;49.902;22.508;2023-04-04T10:54:25;99139.69;;;7.82;40.54
37634;BME280;32048;49.902;22.508;2023-04-04T10:56:55;99135.78;;;9.12;40.24
37634;BME280;32048;49.902;22.508;2023-04-04T10:59:26;99132.72;;;10.06;34.29
37634;BME280;32048;49.902;22.508;2023-04-04T11:04:31;99134.25;;;10.32;34.54
37634;BME280;32048;49.902;22.508;2023-04-04T11:09:54;99126.06;;;10.38;34.73
37634;BME280;32048;49.902;22.508;2023-04-04T11:12:26;99128.34;;;10.65;34.61
37634;BME280;32048;49.902;22.508;2023-04-04T11:17:56;99114.03;;;12.13;32.03
37634;BME280;32048;49.902;22.508;2023-04-04T11:20:29;99106.31;;;12.42;30.20
37634;BME280;32048;49.902;22.508;2023-04-04T11:23:14;99120.03;;;11.82;30.96
37634;BME280;32048;49.902;22.508;2023-04-04T11:25:55;99118.75;;;10.63;33.19
37634;BME280;32048;49.902;22.508;2023-04-04T11:28:42;99113.31;;;9.46;34.08
37634;BME280;32048;49.902;22.508;2023-04-04T11:39:29;99116.28;;;6.95;39.60
37634;BME280;32048;49.902;22.508;2023-04-04T11:42:09;99118.53;;;6.79;38.64
37634;BME280;32048;49.902;22.508;2023-04-04T11:44:42;99116.66;;;6.84;38.45
37634;BME280;32048;49.902;22.508;2023-04-04T11:47:30;99112.88;;;7.19;38.14
37634;BME280;32048;49.902;22.508;2023-04-04T11:49:59;99115.63;;;7.16;38.26
37634;BME280;32048;49.902;22.508;2023-04-04T11:52:33;99108.09;;;6.77;39.33
37634;BME280;32048;49.902;22.508;2023-04-04T11:55:01;99106.56;;;6.40;40.00
37634;BME280;32048;49.902;22.508;2023-04-04T11:57:28;99110.88;;;6.12;40.12
37634;BME280;32048;49.902;22.508;2023-04-04T11:59:56;99112.94;;;6.00;41.24
37634;BME280;32048;49.902;22.508;2023-04-04T12:02:25;99111.84;;;6.09;41.28
37634;BME280;32048;49.902;22.508;2023-04-04T12:05:00;99105.03;;;6.33;40.92
37634;BME280;32048;49.902;22.508;2023-04-04T12:07:28;99103.31;;;6.62;40.84
37634;BME280;32048;49.902;22.508;2023-04-04T12:09:56;99113.63;;;6.96;42.16
37634;BME280;32048;49.902;22.508;2023-04-04T12:12:24;99105.28;;;7.38;40.56
37634;BME280;32048;49.902;22.508;2023-04-04T12:14:53;99107.31;;;7.55;38.50
37634;BME280;32048;49.902;22.508;2023-04-04T12:17:40;99105.16;;;7.41;38.24
37634;BME280;32048;49.902;22.508;2023-04-04T12:20:09;99115.78;;;7.12;38.45
37634;BME280;32048;49.902;22.508;2023-04-04T12:22:37;99109.69;;;6.81;38.58
37634;BME280;32048;49.902;22.508;2023-04-04T12:25:04;99109.31;;;6.65;39.30
37634;BME280;32048;49.902;22.508;2023-04-04T12:27:32;99101.91;;;6.80;39.45
37634;BME280;32048;49.902;22.508;2023-04-04T12:30:00;99098.88;;;6.92;39.47
37634;BME280;32048;49.902;22.508;2023-04-04T12:32:27;99100.63;;;7.20;38.04
37634;BME280;32048;49.902;22.508;2023-04-04T12:34:59;99090.66;;;7.81;39.25
37634;BME280;32048;49.902;22.508;2023-04-04T12:37:27;99085.13;;;8.61;36.55
37634;BME280;32048;49.902;22.508;2023-04-04T12:39:55;99079.91;;;8.82;35.21
37634;BME280;32048;49.902;22.508;2023-04-04T12:42:24;99080.94;;;8.56;35.23
37634;BME280;32048;49.902;22.508;2023-04-04T12:44:51;99081.41;;;8.18;36.04
37634;BME280;32048;49.902;22.508;2023-04-04T12:47:19;99072.78;;;7.66;37.24
37634;BME280;32048;49.902;22.508;2023-04-04T12:49:51;99067.16;;;7.26;37.97
37634;BME280;32048;49.902;22.508;2023-04-04T12:52:26;99065.19;;;7.06;38.38
37634;BME280;32048;49.902;22.508;2023-04-04T12:54:53;99067.22;;;6.97;40.33
37634;BME280;32048;49.902;22.508;2023-04-04T12:57:35;99063.03;;;6.91;39.98
37634;BME280;32048;49.902;22.508;2023-04-04T13:00:03;99065.72;;;6.90;40.06
37634;BME280;32048;49.902;22.508;2023-04-04T13:02:34;99064.81;;;6.91;41.00
37634;BME280;32048;49.902;22.508;2023-04-04T13:05:02;99060.41;;;6.91;40.61
37634;BME280;32048;49.902;22.508;2023-04-04T13:07:32;99058.75;;;6.89;40.63
37634;BME280;32048;49.902;22.508;2023-04-04T13:10:01;99073.03;;;6.80;40.75
37634;BME280;32048;49.902;22.508;2023-04-04T13:15:50;99062.22;;;6.61;41.79
37634;BME280;32048;49.902;22.508;2023-04-04T13:18:20;99069.00;;;6.40;42.20
37634;BME280;32048;49.902;22.508;2023-04-04T13:20:48;99066.19;;;6.16;42.99
37634;BME280;32048;49.902;22.508;2023-04-04T13:23:16;99072.78;;;6.00;42.81